Time;durP1;ratioP1;P1;durP2;ratioP2;P2;SDS_P1;SDS_P2;PMS_P1;PMS_P2;Temp;Humidity;BMP_temperature;BMP_pressure;BME280_temperature;BME280_humidity;BME280_pressure;Samples;Min_cycle;Max_cycle;Signal;HPM_P1;HPM_P2
2023/08/30 00:02:10;;;;;;;;;;;;;;;26.14;61.71;97799.91;67778;1279;1017069;-60
2023/08/30 00:05:12;;;;;;;18.40;6.20;;;;;;;26.04;62.02;97808.09;67685;1279;1015992;-59
2023/08/30 00:08:18;;;;;;;;;;;;;;;25.93;62.37;97806.78;67813;1279;1018510;-60
2023/08/30 00:11:20;;;;;;;17.10;6.00;;;;;;;25.73;63.30;97811.05;67790;1279;1016420;-59
2023/08/30 00:14:22;;;;;;;;;;;;;;;25.91;62.28;97795.12;67766;1279;1016450;-60
2023/08/30 00:17:25;;;;;;;17.80;7.20;;;;;;;26.14;61.35;97775.52;67715;1279;1016282;-60
2023/08/30 00:20:27;;;;;;;;;;;;;;;26.10;61.42;97765.30;67722;1279;1016198;-60
2023/08/30 00:23:30;;;;;;;18.50;6.70;;;;;;;26.13;61.33;97752.18;67695;1279;1016436;-59
2023/08/30 00:26:32;;;;;;;;;;;;;;;26.17;61.19;97743.97;67769;1278;1016182;-60
2023/08/30 00:29:34;;;;;;;17.30;5.50;;;;;;;26.27;60.68;97746.92;67765;1279;1016283;-60
2023/08/30 00:32:37;;;;;;;;;;;;;;;26.15;61.11;97744.27;67744;1279;1016415;-60
2023/08/30 00:35:39;;;;;;;14.60;5.30;;;;;;;26.02;61.67;97746.34;67685;1279;1016367;-58
2023/08/30 00:38:42;;;;;;;17.40;5.60;;;;;;;25.92;61.89;97751.70;67785;1256;1016326;-60
2023/08/30 00:41:44;;;;;;;;;;;;;;;25.99;61.91;97748.27;67781;1278;1016396;-60
2023/08/30 00:44:46;;;;;;;16.40;5.50;;;;;;;26.02;61.96;97742.50;67785;1279;1016836;-60
2023/08/30 00:47:49;;;;;;;;;;;;;;;26.17;60.90;97743.33;67777;1279;1016494;-60
2023/08/30 00:50:51;;;;;;;18.40;5.10;;;;;;;26.15;60.93;97744.22;67704;1278;1016436;-60
2023/08/30 00:53:54;;;;;;;;;;;;;;;26.09;61.32;97754.82;67730;1279;1016863;-60
2023/08/30 00:56:56;;;;;;;14.00;4.90;;;;;;;26.39;60.25;97761.41;67722;1279;1016449;-60
2023/08/30 00:59:58;;;;;;;;;;;;;;;26.48;59.92;97757.35;67772;1279;1016108;-59
2023/08/30 01:03:01;;;;;;;14.50;4.90;;;;;;;26.54;59.73;97749.39;67775;1279;1016516;-59
2023/08/30 01:06:04;;;;;;;14.00;4.80;;;;;;;26.46;59.90;97753.70;67699;1279;1016416;-59
2023/08/30 01:09:06;;;;;;;13.90;5.10;;;;;;;26.56;59.82;97753.96;67753;1279;1016452;-60
2023/08/30 01:12:09;;;;;;;13.50;4.80;;;;;;;26.77;59.33;97747.30;67757;1279;1016481;-60
2023/08/30 01:15:11;;;;;;;;;;;;;;;26.82;59.16;97745.23;67780;1279;1016192;-60
2023/08/30 01:18:13;;;;;;;14.10;4.80;;;;;;;26.89;59.04;97741.14;67755;1279;1016799;-60
2023/08/30 01:21:17;;;;;;;14.70;5.30;;;;;;;26.86;58.89;97737.94;67734;1279;1016504;-60
2023/08/30 01:24:20;;;;;;;15.20;5.10;;;;;;;26.81;59.02;97740.54;67730;1279;1016509;-60
2023/08/30 01:27:23;;;;;;;15.40;5.30;;;;;;;26.77;59.14;97745.90;67774;1279;1016400;-60
2023/08/30 01:30:26;;;;;;;15.40;4.90;;;;;;;26.85;58.87;97748.55;67773;1279;1018691;-60
2023/08/30 01:33:29;;;;;;;13.90;5.00;;;;;;;26.83;59.01;97746.42;67766;1279;1016486;-59
2023/08/30 01:36:31;;;;;;;15.00;4.90;;;;;;;26.85;59.09;97744.87;67773;1279;1016466;-60
2023/08/30 01:39:33;;;;;;;15.70;4.90;;;;;;;27.04;59.13;97743.82;67734;1279;1016031;-60
2023/08/30 01:42:36;;;;;;;15.10;4.70;;;;;;;27.13;58.85;97741.60;67743;1279;1016863;-60
2023/08/30 01:45:38;;;;;;;15.90;6.00;;;;;;;27.17;58.06;97734.23;67789;1279;1016649;-60
2023/08/30 01:48:41;;;;;;;15.70;5.50;;;;;;;26.99;58.32;97733.40;67775;1279;1018221;-60
2023/08/30 01:51:43;;;;;;;;;;;;;;;27.04;58.20;97740.02;67812;1279;1016452;-60
2023/08/30 01:54:45;;;;;;;16.70;5.30;;;;;;;27.02;58.14;97742.77;67728;1279;1018140;-60
2023/08/30 01:57:48;;;;;;;;;;;;;;;26.70;59.03;97740.05;67659;1279;1016724;-60
2023/08/30 02:00:50;;;;;;;14.20;4.70;;;;;;;26.44;59.83;97741.64;67732;1279;1016521;-59
2023/08/30 02:03:53;;;;;;;15.10;5.10;;;;;;;26.41;59.98;97737.78;67738;1278;1016340;-59
2023/08/30 02:06:55;;;;;;;13.70;4.60;;;;;;;26.30;60.26;97743.93;67761;1279;1016435;-60
2023/08/30 02:09:57;;;;;;;;;;;;;;;26.23;60.38;97741.95;67764;1279;1016497;-60
2023/08/30 02:13:00;;;;;;;17.00;5.60;;;;;;;26.32;60.32;97734.39;67737;1279;1016452;-60
2023/08/30 02:16:02;;;;;;;;;;;;;;;26.16;60.63;97725.87;67663;1279;1017618;-59
2023/08/30 02:19:04;;;;;;;17.00;5.80;;;;;;;25.99;61.47;97721.94;67737;1279;1015975;-59
2023/08/30 02:22:07;;;;;;;;;;;;;;;25.97;61.54;97719.19;67758;1279;1016297;-59
2023/08/30 02:25:10;;;;;;;19.00;6.20;;;;;;;25.87;61.54;97713.72;67753;1279;1016397;-59
2023/08/30 02:28:12;;;;;;;16.50;6.10;;;;;;;25.80;62.27;97715.15;67750;1279;1016640;-60
2023/08/30 02:31:14;;;;;;;19.20;6.90;;;;;;;25.88;62.00;97714.21;67744;1279;1016490;-60
2023/08/30 02:34:17;;;;;;;;;;;;;;;26.02;61.37;97708.41;67791;1279;1016256;-60
2023/08/30 02:37:19;;;;;;;18.60;6.40;;;;;;;26.01;61.52;97707.02;67779;1279;1016472;-59
2023/08/30 02:40:22;;;;;;;;;;;;;;;25.98;61.55;97707.15;67749;1279;1016215;-60
2023/08/30 02:43:24;;;;;;;19.90;7.20;;;;;;;26.10;60.85;97702.93;67724;1279;1018825;-59
2023/08/30 02:46:26;;;;;;;;;;;;;;;26.05;61.31;97703.68;67732;1279;1016423;-60
2023/08/30 02:49:29;;;;;;;19.40;7.10;;;;;;;25.94;61.49;97704.54;67775;1279;1016623;-60
2023/08/30 02:52:31;;;;;;;;;;;;;;;26.01;61.17;97707.73;67778;1279;1016402;-59
2023/08/30 02:55:33;;;;;;;19.20;7.30;;;;;;;26.16;60.86;97707.73;67764;1279;1016637;-60
2023/08/30 02:58:36;;;;;;;;;;;;;;;26.16;61.01;97717.19;67740;1279;1016503;-60
2023/08/30 03:01:38;;;;;;;20.20;6.80;;;;;;;26.26;60.71;97717.75;67753;1279;1016372;-60
2023/08/30 03:04:40;;;;;;;;;;;;;;;26.34;60.14;97719.48;67740;1279;1016247;-60
2023/08/30 03:07:43;;;;;;;19.00;6.90;;;;;;;26.21;60.82;97719.15;67714;1279;1016359;-59
2023/08/30 03:10:45;;;;;;;;;;;;;;;26.26;60.45;97720.19;67800;1279;1016066;-60
2023/08/30 03:13:48;;;;;;;19.50;7.20;;;;;;;26.20;60.83;97722.36;67768;1279;1016513;-60
2023/08/30 03:16:50;;;;;;;;;;;;;;;26.43;59.91;97718.29;67687;1279;1016471;-60
2023/08/30 03:19:54;;;;;;;;;;;;;;;26.25;60.65;97715.15;67746;1279;1016468;-60
2023/08/30 03:22:56;;;;;;;21.30;8.40;;;;;;;26.32;60.18;97711.38;67724;1279;1016401;-60
2023/08/30 03:25:58;;;;;;;19.80;8.00;;;;;;;26.30;60.37;97719.16;67752;1279;1016199;-60
2023/08/30 03:29:01;;;;;;;;;;;;;;;26.27;60.53;97719.77;67784;1278;1016241;-59
2023/08/30 03:32:03;;;;;;;21.60;8.20;;;;;;;26.08;61.16;97717.65;67751;1279;1016011;-60
2023/08/30 03:35:06;;;;;;;;;;;;;;;25.88;62.08;97710.73;67775;1279;1017220;-60
2023/08/30 03:38:08;;;;;;;19.60;8.40;;;;;;;26.00;61.56;97703.45;67763;1279;1016154;-59
2023/08/30 03:41:10;;;;;;;;;;;;;;;25.92;61.69;97702.82;67715;1279;1016906;-60
2023/08/30 03:44:13;;;;;;;22.40;8.70;;;;;;;25.98;61.55;97701.61;67713;1279;1016349;-60
2023/08/30 03:47:15;;;;;;;;;;;;;;;26.11;61.25;97703.10;67796;1279;1015846;-60
2023/08/30 03:50:18;;;;;;;20.90;7.90;;;;;;;26.16;61.07;97698.76;67798;1278;1016359;-60
2023/08/30 03:53:20;;;;;;;19.70;7.60;;;;;;;26.15;60.90;97698.84;67758;1279;1016559;-60
2023/08/30 03:56:22;;;;;;;;;;;;;;;26.26;60.44;97700.23;67730;1279;1016291;-60
2023/08/30 03:59:27;;;;;;;19.90;8.10;;;;;;;26.45;59.63;97706.02;67745;1279;1016144;-60
2023/08/30 04:02:29;;;;;;;23.80;8.60;;;;;;;26.53;59.42;97706.52;67733;1279;1016301;-59
2023/08/30 04:05:32;;;;;;;;;;;;;;;26.76;58.72;97711.50;67764;1279;1016760;-60
2023/08/30 04:08:34;;;;;;;22.40;7.90;;;;;;;27.16;56.99;97706.23;67770;1279;1016477;-60
2023/08/30 04:11:36;;;;;;;;;;;;;;;27.09;56.85;97710.96;67793;1279;1016638;-60
2023/08/30 04:14:39;;;;;;;20.40;7.50;;;;;;;26.53;58.59;97708.09;67754;1279;1016503;-60
2023/08/30 04:17:41;;;;;;;;;;;;;;;26.39;59.35;97707.98;67706;1279;1016713;-60
2023/08/30 04:20:43;;;;;;;19.90;7.70;;;;;;;26.41;59.28;97701.48;67749;1277;1016117;-60
2023/08/30 04:23:46;;;;;;;;;;;;;;;26.09;60.54;97704.95;67756;1279;1016492;-60
2023/08/30 04:26:51;;;;;;;22.60;8.50;;;;;;;25.96;61.15;97705.31;67781;1279;1016501;-60
2023/08/30 04:29:53;;;;;;;21.90;8.80;;;;;;;25.99;60.99;97706.03;67723;1279;1016461;-60
2023/08/30 04:32:56;;;;;;;;;;;;;;;26.19;60.49;97706.89;67785;1279;1018041;-60
2023/08/30 04:36:00;;;;;;;20.70;8.00;;;;;;;26.54;59.24;97708.08;67747;1279;1016458;-60
2023/08/30 04:39:03;;;;;;;21.00;8.00;;;;;;;26.50;59.05;97706.64;67809;1279;1016500;-60
2023/08/30 04:42:05;;;;;;;20.90;8.30;;;;;;;26.25;59.69;97711.80;67707;1279;1016877;-60
2023/08/30 04:45:08;;;;;;;;;;;;;;;26.34;59.74;97708.41;67718;1279;1016293;-60
2023/08/30 04:48:11;;;;;;;21.10;8.10;;;;;;;26.42;59.52;97706.67;67716;1279;1016271;-60
2023/08/30 04:51:14;;;;;;;21.80;8.50;;;;;;;26.64;58.41;97707.65;67757;1279;1016440;-60
2023/08/30 04:54:16;;;;;;;;;;;;;;;26.75;57.88;97713.16;67776;1279;1016185;-60
2023/08/30 04:57:18;;;;;;;20.80;7.80;;;;;;;26.80;57.84;97710.38;67747;1279;1016414;-60
2023/08/30 05:00:21;;;;;;;;;;;;;;;26.75;57.92;97709.11;67752;1279;1016450;-60
2023/08/30 05:03:23;;;;;;;21.00;8.70;;;;;;;26.75;57.97;97713.25;67713;1279;1016434;-61
2023/08/30 05:06:26;;;;;;;;;;;;;;;26.64;58.43;97709.73;67746;1279;1017398;-60
2023/08/30 05:09:28;;;;;;;19.80;7.10;;;;;;;26.67;58.41;97711.99;67701;1279;1016341;-60
2023/08/30 05:12:30;;;;;;;;;;;;;;;26.52;58.74;97712.31;67790;1279;1017266;-60
2023/08/30 05:15:33;;;;;;;20.30;7.30;;;;;;;26.57;58.82;97712.22;67771;1279;1016863;-60
2023/08/30 05:18:35;;;;;;;;;;;;;;;26.54;59.08;97707.84;67787;1278;1018007;-60
2023/08/30 05:21:38;;;;;;;20.50;6.30;;;;;;;26.16;60.13;97712.05;67737;1278;1016675;-60
2023/08/30 05:24:40;;;;;;;19.30;6.60;;;;;;;26.21;60.11;97708.66;67712;1279;1015986;-60
2023/08/30 05:27:43;;;;;;;;;;;;;;;26.12;60.25;97711.39;67763;1278;1017240;-60
2023/08/30 05:30:45;;;;;;;17.10;5.60;;;;;;;25.86;61.40;97715.89;67755;1279;1016437;-60
2023/08/30 05:33:48;;;;;;;18.90;5.90;;;;;;;25.80;61.31;97715.35;67705;1279;1016352;-60
2023/08/30 05:36:50;;;;;;;;;;;;;;;26.02;60.44;97716.35;67744;1279;1017216;-60
2023/08/30 05:39:53;;;;;;;17.90;5.80;;;;;;;25.95;60.40;97717.14;67736;1279;1018621;-60
2023/08/30 05:42:55;;;;;;;;;;;;;;;25.95;60.36;97717.05;67774;1279;1016078;-60
2023/08/30 05:46:02;;;;;;;17.40;5.80;;;;;;;25.88;60.62;97715.45;67723;1279;1016445;-60
2023/08/30 05:49:04;;;;;;;17.40;5.70;;;;;;;25.92;60.54;97716.77;67720;1279;1016010;-60
2023/08/30 05:52:07;;;;;;;17.90;6.30;;;;;;;25.86;60.57;97717.38;67783;1279;1016315;-60
2023/08/30 05:55:09;;;;;;;;;;;;;;;25.65;61.60;97715.26;67760;1279;1016307;-60
2023/08/30 05:58:13;;;;;;;16.20;4.80;;;;;;;25.75;61.43;97720.27;67770;1279;1016454;-60
2023/08/30 06:01:16;;;;;;;15.90;5.10;;;;;;;26.20;59.52;97726.45;67787;1279;1016456;-59
2023/08/30 06:04:18;;;;;;;;;;;;;;;26.03;60.11;97735.80;67753;1279;1019675;-60
2023/08/30 06:07:20;;;;;;;;;;;;;;;26.21;59.58;97743.49;67637;1279;1015858;-60
2023/08/30 06:10:24;;;;;;;18.00;5.70;;;;;;;26.41;59.04;97751.42;67765;1279;1016378;-60
2023/08/30 06:13:26;;;;;;;18.70;6.40;;;;;;;26.24;59.09;97758.82;67766;1279;1016574;-59
2023/08/30 06:16:29;;;;;;;20.60;6.30;;;;;;;26.23;58.71;97757.63;67785;1279;1016376;-59
2023/08/30 06:19:31;;;;;;;18.20;6.20;;;;;;;25.87;59.80;97763.19;67751;1279;1016252;-60
2023/08/30 06:22:34;;;;;;;18.60;6.30;;;;;;;25.62;60.74;97767.45;67782;1279;1016478;-60
2023/08/30 06:25:36;;;;;;;19.60;6.70;;;;;;;25.47;61.34;97771.25;67739;1279;1018372;-60
2023/08/30 06:28:39;;;;;;;;;;;;;;;25.43;61.42;97764.83;67732;1279;1016465;-60
2023/08/30 06:31:42;;;;;;;18.50;6.20;;;;;;;25.57;60.79;97763.91;67756;1279;1016368;-60
2023/08/30 06:34:44;;;;;;;19.10;5.80;;;;;;;25.56;61.03;97762.88;67717;1279;1016364;-60
2023/08/30 06:37:47;;;;;;;14.10;4.80;;;;;;;25.54;60.82;97766.74;67744;1279;1016477;-60
2023/08/30 06:40:50;;;;;;;14.10;4.70;;;;;;;25.83;59.79;97767.31;67824;1279;1016691;-60
2023/08/30 06:43:52;;;;;;;14.40;4.50;;;;;;;25.79;59.94;97768.66;67707;1276;1016506;-60
2023/08/30 06:46:55;;;;;;;17.50;5.70;;;;;;;25.63;60.57;97766.98;67790;1275;1016460;-60
2023/08/30 06:49:58;;;;;;;;;;;;;;;25.82;59.70;97766.70;67819;1278;1016256;-60
2023/08/30 06:53:01;;;;;;;15.90;5.00;;;;;;;25.84;59.63;97769.81;67787;1278;1016429;-60
2023/08/30 06:56:03;;;;;;;15.50;4.20;;;;;;;25.70;60.14;97773.05;67793;1278;1015933;-60
2023/08/30 06:59:06;;;;;;;18.60;6.20;;;;;;;25.82;59.47;97776.65;67853;1275;1016302;-59
2023/08/30 07:02:08;;;;;;;17.20;5.00;;;;;;;25.74;59.60;97778.21;67800;1278;1016254;-60
2023/08/30 07:05:11;;;;;;;;;;;;;;;25.81;59.14;97772.40;67704;1278;1016140;-60
2023/08/30 07:08:13;;;;;;;21.50;5.50;;;;;;;25.65;59.69;97773.98;67696;1278;1018373;-60
2023/08/30 07:11:16;;;;;;;16.60;5.00;;;;;;;25.50;60.55;97780.44;67729;1278;1016132;-60
2023/08/30 07:14:18;;;;;;;;;;;;;;;25.37;61.03;97786.65;67794;1279;1016396;-57
2023/08/30 07:17:21;;;;;;;22.30;7.40;;;;;;;25.44;60.53;97789.38;67696;1275;1016394;-60
2023/08/30 07:20:23;;;;;;;;;;;;;;;25.49;60.46;97793.74;67760;1275;1016116;-60
2023/08/30 07:23:25;;;;;;;23.60;7.00;;;;;;;25.54;60.25;97795.36;67765;1279;1016364;-60
2023/08/30 07:26:28;;;;;;;;;;;;;;;25.57;60.05;97798.48;67814;1278;1016231;-60
2023/08/30 07:29:30;;;;;;;16.00;5.20;;;;;;;25.57;60.60;97797.91;67822;1278;1016451;-60
2023/08/30 07:32:33;;;;;;;;;;;;;;;25.64;59.83;97796.88;67775;1278;1016426;-60
2023/08/30 07:35:35;;;;;;;15.20;4.70;;;;;;;25.69;59.62;97794.36;67741;1278;1016481;-60
2023/08/30 07:38:37;;;;;;;;;;;;;;;25.76;59.36;97789.83;67782;1278;1018305;-60
2023/08/30 07:41:40;;;;;;;14.40;4.90;;;;;;;25.94;59.04;97792.14;67774;1270;1016578;-60
2023/08/30 07:44:42;;;;;;;;;;;;;;;26.00;59.10;97790.87;67805;1278;1016317;-60
2023/08/30 07:47:44;;;;;;;12.90;4.20;;;;;;;26.20;58.43;97792.73;67782;1278;1016275;-60
2023/08/30 07:50:47;;;;;;;;;;;;;;;26.12;58.78;97797.16;67730;1278;1016339;-60
2023/08/30 07:53:49;;;;;;;12.60;4.20;;;;;;;26.07;58.54;97801.30;67772;1278;1016296;-60
2023/08/30 07:56:52;;;;;;;13.20;4.60;;;;;;;26.10;58.02;97803.75;67765;1270;1016393;-60
2023/08/30 07:59:54;;;;;;;13.70;4.60;;;;;;;25.98;58.46;97806.38;67834;1271;1016419;-60
2023/08/30 08:02:56;;;;;;;16.10;4.80;;;;;;;25.90;58.63;97808.66;67743;1278;1016361;-61
2023/08/30 08:05:59;;;;;;;;;;;;;;;25.79;58.74;97813.35;67777;1278;1016455;-60
2023/08/30 08:09:02;;;;;;;16.20;5.20;;;;;;;25.79;59.07;97803.23;67728;1278;1016236;-59
2023/08/30 08:12:04;;;;;;;15.00;5.10;;;;;;;25.62;59.43;97801.96;67819;1278;1016343;-59
2023/08/30 08:15:06;;;;;;;15.50;5.30;;;;;;;25.43;60.62;97808.14;67820;1278;1016209;-60
2023/08/30 08:18:09;;;;;;;12.20;4.30;;;;;;;25.47;60.28;97816.97;67724;1278;1016379;-60
2023/08/30 08:21:11;;;;;;;;;;;;;;;25.42;60.09;97818.84;67762;1278;1016082;-60
2023/08/30 08:24:14;;;;;;;10.00;3.10;;;;;;;25.61;59.63;97819.08;67834;1278;1016413;-60
2023/08/30 08:27:16;;;;;;;;;;;;;;;25.68;59.54;97819.45;67810;1278;1016406;-60
2023/08/30 08:30:20;;;;;;;11.40;3.30;;;;;;;25.45;60.19;97822.91;67814;1276;1016176;-59
2023/08/30 08:33:24;;;;;;;7.60;2.80;;;;;;;25.52;60.30;97829.12;67791;1278;1018345;-59
2023/08/30 08:36:26;;;;;;;6.60;2.70;;;;;;;25.73;59.51;97832.67;67803;1272;1016283;-60
2023/08/30 08:39:28;;;;;;;6.80;2.80;;;;;;;25.84;59.27;97832.86;67752;1279;1016734;-59
2023/08/30 08:42:31;;;;;;;16.20;4.90;;;;;;;25.96;58.45;97836.67;67732;1278;1016263;-59
2023/08/30 08:45:33;;;;;;;;;;;;;;;25.95;58.55;97843.55;67707;1279;1016495;-60
2023/08/30 08:48:36;;;;;;;13.50;4.20;;;;;;;25.93;58.72;97842.19;67737;1279;1016988;-60
2023/08/30 08:51:38;;;;;;;;;;;;;;;25.98;58.63;97844.61;67743;1279;1016518;-59
2023/08/30 08:54:41;;;;;;;21.80;5.50;;;;;;;25.95;58.65;97835.48;67706;1276;1016480;-60
2023/08/30 08:57:44;;;;;;;11.20;3.70;;;;;;;26.01;59.10;97831.52;67713;1279;1015944;-60
2023/08/30 09:00:46;;;;;;;10.50;3.20;;;;;;;26.37;57.63;97829.73;67738;1279;1016395;-60
2023/08/30 09:03:49;;;;;;;11.20;3.70;;;;;;;26.35;57.69;97831.83;67721;1279;1016236;-60
2023/08/30 09:06:51;;;;;;;;;;;;;;;26.29;57.95;97837.98;67726;1278;1016428;-60
2023/08/30 09:09:54;;;;;;;16.70;4.90;;;;;;;26.28;57.28;97839.61;67758;1279;1018929;-58
2023/08/30 09:12:57;;;;;;;17.00;5.00;;;;;;;26.04;57.85;97837.88;67728;1278;1016547;-60
2023/08/30 09:15:59;;;;;;;;;;;;;;;26.10;57.79;97838.59;67722;1279;1016493;-60
2023/08/30 09:19:02;;;;;;;13.00;4.10;;;;;;;26.26;57.17;97839.63;67730;1278;1015837;-60
2023/08/30 09:22:05;;;;;;;10.90;3.60;;;;;;;26.26;57.10;97834.05;67757;1278;1016474;-59
2023/08/30 09:25:07;;;;;;;;;;;;;;;26.26;57.19;97836.44;67706;1278;1018659;-60
2023/08/30 09:28:10;;;;;;;7.50;3.10;;;;;;;26.44;56.36;97839.65;67754;1278;1018422;-60
2023/08/30 09:31:12;;;;;;;;;;;;;;;26.51;56.35;97842.27;67788;1278;1016283;-59
2023/08/30 09:34:15;;;;;;;;;;;;;;;26.58;55.98;97845.36;67815;1279;1016463;-60
2023/08/30 09:37:17;;;;;;;;;;;;;;;26.71;55.92;97838.88;67718;1279;1015885;-60
2023/08/30 09:40:20;;;;;;;;;;;;;;;26.63;55.65;97842.30;67771;1279;1016169;-59
2023/08/30 09:43:23;;;;;;;10.80;3.80;;;;;;;26.90;55.24;97832.80;67706;1278;1016465;-59
2023/08/30 09:46:26;;;;;;;10.70;3.50;;;;;;;27.22;54.72;97829.73;67729;1279;1016532;-59
2023/08/30 09:49:28;;;;;;;12.20;3.80;;;;;;;27.64;54.09;97828.21;67782;1277;1016509;-59
2023/08/30 09:52:31;;;;;;;13.70;4.60;;;;;;;27.81;53.11;97832.45;67741;1270;1016491;-59
2023/08/30 09:55:34;;;;;;;18.70;6.20;;;;;;;27.47;53.81;97835.85;67793;1275;1016399;-62
2023/08/30 09:58:36;;;;;;;17.50;5.70;;;;;;;26.87;54.04;97848.96;67777;1278;1016165;-60
2023/08/30 10:01:38;;;;;;;19.10;5.90;;;;;;;26.60;54.36;97856.02;67749;1278;1016311;-60
2023/08/30 10:04:41;;;;;;;21.10;6.40;;;;;;;26.53;54.56;97854.80;67732;1279;1016393;-60
2023/08/30 10:07:43;;;;;;;18.40;6.50;;;;;;;26.46;54.83;97855.85;67777;1278;1016437;-59
2023/08/30 10:10:45;;;;;;;18.40;6.60;;;;;;;26.64;54.44;97855.10;67776;1275;1016189;-59
2023/08/30 10:13:48;;;;;;;17.60;5.30;;;;;;;26.72;54.70;97852.61;67716;1279;1017569;-58
2023/08/30 10:17:08;;;;;;;;;;;;;;;26.63;55.35;97855.88;67738;1279;1017904;-60
2023/08/30 10:20:12;;;;;;;20.00;6.70;;;;;;;26.50;55.21;97869.70;67741;1279;1016345;-59
2023/08/30 10:23:32;;;;;;;21.30;6.70;;;;;;;26.06;55.93;97877.95;67723;1278;1018888;-56
2023/08/30 10:26:35;;;;;;;;;;;;;;;25.90;56.28;97876.79;67778;1279;1016469;-58
2023/08/30 10:29:37;;;;;;;20.70;7.90;;;;;;;25.86;56.56;97870.78;67795;1279;1017369;-61
2023/08/30 10:32:40;;;;;;;23.40;9.10;;;;;;;25.72;57.43;97873.30;67706;1278;1016310;-58
2023/08/30 10:38:59;;;;;;;19.50;6.60;;;;;;;25.77;57.00;97880.30;67773;1279;1016310;-59
2023/08/30 10:42:02;;;;;;;18.90;6.10;;;;;;;25.63;57.33;97882.02;67756;1279;1017099;-59
2023/08/30 10:45:04;;;;;;;17.40;5.70;;;;;;;25.48;57.77;97893.23;67692;1278;1015931;-60
2023/08/30 10:52:05;;;;;;;19.80;6.40;;;;;;;25.14;58.19;97899.93;67698;1275;1018933;-60
2023/08/30 11:05:46;;;;;;;16.30;5.00;;;;;;;25.91;56.86;97893.31;67744;1275;1016391;-60
2023/08/30 11:08:49;;;;;;;13.80;4.60;;;;;;;26.01;56.71;97888.23;67765;1273;1016561;-61
2023/08/30 11:11:51;;;;;;;14.00;4.10;;;;;;;25.96;56.90;97884.04;67743;1275;1016155;-61
2023/08/30 11:14:54;;;;;;;14.40;4.30;;;;;;;26.06;57.20;97882.36;67800;1278;1016501;-59
2023/08/30 11:17:57;;;;;;;16.30;4.60;;;;;;;25.83;57.63;97880.84;67723;1272;1016403;-58
2023/08/30 11:21:00;;;;;;;17.40;5.10;;;;;;;26.03;57.38;97876.70;67782;1275;1016480;-60
2023/08/30 11:24:03;;;;;;;15.30;4.50;;;;;;;26.11;57.41;97876.02;67824;1272;1016477;-61
2023/08/30 11:27:05;;;;;;;17.30;5.60;;;;;;;26.42;55.70;97877.80;67755;1275;1016258;-61
2023/08/30 11:30:08;;;;;;;16.40;5.20;;;;;;;26.84;55.32;97871.29;67830;1278;1016377;-60
2023/08/30 11:33:10;;;;;;;14.00;4.10;;;;;;;27.17;54.03;97870.45;67836;1275;1016905;-60
2023/08/30 11:36:13;;;;;;;13.00;4.20;;;;;;;26.95;53.97;97871.52;67730;1278;1016480;-60
2023/08/30 11:39:15;;;;;;;13.30;4.30;;;;;;;26.74;54.36;97875.23;67730;1278;1016222;-61
2023/08/30 11:42:18;;;;;;;12.60;4.10;;;;;;;26.70;54.82;97872.20;67774;1278;1016327;-57
2023/08/30 11:45:21;;;;;;;14.30;4.20;;;;;;;26.70;54.42;97873.23;67732;1273;1016408;-60
2023/08/30 11:48:23;;;;;;;14.00;4.20;;;;;;;26.78;53.90;97873.80;67721;1270;1016161;-61
2023/08/30 11:51:26;;;;;;;10.00;3.50;;;;;;;26.59;53.62;97874.97;67752;1278;1016461;-60
2023/08/30 11:54:28;;;;;;;10.90;3.70;;;;;;;26.67;53.51;97876.74;67771;1278;1016231;-60
2023/08/30 11:57:31;;;;;;;13.40;4.00;;;;;;;26.83;53.77;97866.00;67701;1278;1016376;-60
2023/08/30 12:00:33;;;;;;;11.70;3.90;;;;;;;26.83;53.10;97863.57;67746;1275;1016413;-60
2023/08/30 12:03:36;;;;;;;10.40;3.60;;;;;;;26.69;53.94;97864.59;67754;1275;1016674;-61
2023/08/30 12:06:38;;;;;;;12.40;3.90;;;;;;;26.70;53.43;97859.94;67811;1270;1016281;-60
2023/08/30 12:09:41;;;;;;;11.80;4.10;;;;;;;27.14;53.63;97859.02;67803;1272;1016530;-60
2023/08/30 12:12:43;;;;;;;9.80;3.30;;;;;;;27.67;51.93;97858.91;67727;1278;1016407;-60
2023/08/30 12:15:46;;;;;;;8.10;3.10;;;;;;;28.26;51.52;97853.13;67720;1272;1016983;-60
2023/08/30 12:18:48;;;;;;;7.30;2.90;;;;;;;28.78;50.41;97845.66;67767;1278;1016381;-61
2023/08/30 12:21:50;;;;;;;6.60;2.70;;;;;;;28.76;49.42;97850.46;67742;1278;1016494;-60
2023/08/30 12:24:53;;;;;;;7.20;3.00;;;;;;;28.73;49.59;97852.77;67725;1279;1016387;-58
2023/08/30 12:27:56;;;;;;;8.90;3.30;;;;;;;28.95;49.78;97851.92;67732;1278;1016276;-58
2023/08/30 12:30:58;;;;;;;11.00;2.80;;;;;;;29.31;49.08;97855.72;67760;1279;1018457;-60
2023/08/30 12:34:00;;;;;;;7.90;3.20;;;;;;;29.42;49.02;97855.41;67797;1278;1016451;-60
2023/08/30 12:37:04;;;;;;;6.20;2.70;;;;;;;29.21;48.78;97847.58;67747;1279;1016263;-59
2023/08/30 12:40:06;;;;;;;8.30;2.60;;;;;;;28.79;49.52;97844.22;67759;1278;1016865;-59
2023/08/30 12:43:10;;;;;;;7.00;2.40;;;;;;;29.00;49.19;97843.24;67675;1278;1019245;-58
2023/08/30 12:46:12;;;;;;;4.60;2.10;;;;;;;29.04;48.32;97841.22;67779;1278;1016269;-58
2023/08/30 12:49:15;;;;;;;6.80;2.70;;;;;;;28.72;48.96;97835.23;67800;1278;1016254;-58
2023/08/30 12:52:17;;;;;;;7.90;2.60;;;;;;;29.18;48.32;97836.55;67729;1278;1017191;-58
2023/08/30 12:55:20;;;;;;;5.50;2.30;;;;;;;29.49;47.77;97846.64;67711;1279;1016147;-61
2023/08/30 12:58:22;;;;;;;6.90;2.70;;;;;;;29.54;46.17;97849.65;67735;1279;1016514;-61
2023/08/30 13:01:25;;;;;;;8.60;2.90;;;;;;;29.40;46.16;97847.44;67767;1279;1016141;-58
2023/08/30 13:04:27;;;;;;;7.70;2.70;;;;;;;29.27;46.27;97845.86;67729;1279;1018832;-58
2023/08/30 13:07:30;;;;;;;7.20;2.60;;;;;;;29.00;47.18;97845.23;67724;1279;1016227;-58
2023/08/30 13:10:32;;;;;;;6.80;2.50;;;;;;;29.03;47.83;97847.14;67730;1279;1015999;-58
2023/08/30 13:13:34;;;;;;;5.00;2.60;;;;;;;29.08;47.85;97849.08;67763;1279;1015879;-57
2023/08/30 13:16:37;;;;;;;7.00;2.70;;;;;;;29.38;47.16;97855.92;67764;1279;1015905;-61
2023/08/30 13:19:39;;;;;;;7.80;2.80;;;;;;;29.53;46.36;97860.50;67697;1278;1016388;-61
2023/08/30 13:22:42;;;;;;;5.70;2.10;;;;;;;29.57;47.03;97850.08;67700;1279;1015842;-59
2023/08/30 13:25:44;;;;;;;7.40;2.40;;;;;;;29.46;46.50;97846.64;67709;1278;1016510;-60
2023/08/30 13:28:46;;;;;;;7.00;2.60;;;;;;;29.25;47.36;97848.44;67720;1278;1017094;-60
2023/08/30 13:31:49;;;;;;;5.70;2.10;;;;;;;29.29;47.32;97845.27;67735;1278;1015947;-56
2023/08/30 13:34:51;;;;;;;4.90;2.00;;;;;;;29.27;46.70;97843.60;67749;1278;1016320;-58
2023/08/30 13:37:54;;;;;;;6.90;2.20;;;;;;;29.01;46.86;97842.35;67754;1278;1016420;-58
2023/08/30 13:40:56;;;;;;;3.90;1.70;;;;;;;28.70;47.53;97845.81;67747;1279;1016682;-60
2023/08/30 13:43:58;;;;;;;3.50;1.60;;;;;;;28.68;47.33;97840.45;67687;1278;1017571;-61
2023/08/30 13:47:01;;;;;;;4.40;1.40;;;;;;;28.36;47.87;97846.45;67704;1279;1016194;-60
2023/08/30 13:50:04;;;;;;;4.20;2.20;;;;;;;28.34;47.99;97854.73;67730;1279;1016450;-60
2023/08/30 13:53:07;;;;;;;5.70;1.60;;;;;;;28.52;47.48;97853.25;67783;1278;1016555;-60
2023/08/30 13:56:09;;;;;;;3.30;1.60;;;;;;;28.74;47.35;97846.88;67754;1279;1016501;-59
2023/08/30 13:59:12;;;;;;;5.40;1.60;;;;;;;28.52;47.53;97847.36;67728;1279;1018590;-60
2023/08/30 14:02:14;;;;;;;4.10;1.60;;;;;;;28.35;47.99;97845.81;67737;1278;1016193;-60
2023/08/30 14:05:20;;;;;;;4.00;1.70;;;;;;;28.31;48.19;97837.58;67769;1279;1016622;-61
2023/08/30 14:08:22;;;;;;;2.50;1.40;;;;;;;28.28;48.42;97836.02;67752;1278;1016480;-61
2023/08/30 14:11:24;;;;;;;4.20;1.80;;;;;;;28.13;48.37;97833.91;67733;1279;1015716;-61
2023/08/30 14:14:27;;;;;;;3.40;1.60;;;;;;;27.90;48.72;97838.95;67726;1278;1016422;-58
2023/08/30 14:17:29;;;;;;;4.00;2.10;;;;;;;27.87;48.84;97840.16;67728;1278;1016222;-58
2023/08/30 14:20:32;;;;;;;3.30;1.80;;;;;;;27.86;48.82;97849.34;67778;1279;1016410;-60
2023/08/30 14:23:35;;;;;;;2.30;1.50;;;;;;;27.71;49.03;97851.39;67666;1279;1016456;-59
2023/08/30 14:26:38;;;;;;;3.70;1.90;;;;;;;27.56;49.88;97849.45;67634;1279;1016382;-59
2023/08/30 14:29:41;;;;;;;3.50;1.70;;;;;;;27.58;49.30;97849.27;67738;1279;1016410;-59
2023/08/30 14:32:44;;;;;;;2.30;1.60;;;;;;;27.16;50.06;97845.23;67792;1278;1016016;-59